sensor_id;sensor_type;location;lat;lon;timestamp;P1;durP1;ratioP1;P2;durP2;ratioP2
18883;SDS011;9574;47.282;9.640;2023-02-15T00:00:33;20.60;;;9.10;;
18883;SDS011;9574;47.282;9.640;2023-02-15T00:03:00;22.63;;;9.47;;
18883;SDS011;9574;47.282;9.640;2023-02-15T00:05:27;18.27;;;9.40;;
18883;SDS011;9574;47.282;9.640;2023-02-15T00:07:58;14.10;;;7.27;;
18883;SDS011;9574;47.282;9.640;2023-02-15T00:10:25;16.20;;;8.10;;
18883;SDS011;9574;47.282;9.640;2023-02-15T00:12:52;15.70;;;8.07;;
18883;SDS011;9574;47.282;9.640;2023-02-15T00:15:19;15.83;;;8.07;;
18883;SDS011;9574;47.282;9.640;2023-02-15T00:17:46;14.83;;;8.07;;
18883;SDS011;9574;47.282;9.640;2023-02-15T00:20:13;18.80;;;7.73;;
18883;SDS011;9574;47.282;9.640;2023-02-15T00:22:40;19.03;;;7.83;;
18883;SDS011;9574;47.282;9.640;2023-02-15T00:25:08;29.30;;;6.87;;
18883;SDS011;9574;47.282;9.640;2023-02-15T00:27:35;13.23;;;7.37;;
18883;SDS011;9574;47.282;9.640;2023-02-15T00:30:02;17.57;;;7.70;;
18883;SDS011;9574;47.282;9.640;2023-02-15T00:32:30;31.17;;;8.50;;
18883;SDS011;9574;47.282;9.640;2023-02-15T00:34:58;17.33;;;8.03;;
18883;SDS011;9574;47.282;9.640;2023-02-15T00:37:25;20.17;;;8.23;;
18883;SDS011;9574;47.282;9.640;2023-02-15T00:39:52;22.53;;;8.57;;
18883;SDS011;9574;47.282;9.640;2023-02-15T00:42:20;19.87;;;9.63;;
18883;SDS011;9574;47.282;9.640;2023-02-15T00:44:47;16.53;;;8.37;;
18883;SDS011;9574;47.282;9.640;2023-02-15T00:47:14;16.77;;;8.60;;
18883;SDS011;9574;47.282;9.640;2023-02-15T00:49:41;17.57;;;8.87;;
18883;SDS011;9574;47.282;9.640;2023-02-15T00:52:08;20.03;;;9.13;;
18883;SDS011;9574;47.282;9.640;2023-02-15T00:54:35;17.73;;;8.10;;
18883;SDS011;9574;47.282;9.640;2023-02-15T00:57:03;18.13;;;8.43;;
18883;SDS011;9574;47.282;9.640;2023-02-15T00:59:32;16.40;;;9.10;;
18883;SDS011;9574;47.282;9.640;2023-02-15T01:01:59;17.90;;;8.47;;
18883;SDS011;9574;47.282;9.640;2023-02-15T01:04:25;16.93;;;9.23;;
18883;SDS011;9574;47.282;9.640;2023-02-15T01:06:52;26.00;;;10.27;;
18883;SDS011;9574;47.282;9.640;2023-02-15T01:09:19;18.00;;;8.87;;
18883;SDS011;9574;47.282;9.640;2023-02-15T01:11:47;22.87;;;7.53;;
18883;SDS011;9574;47.282;9.640;2023-02-15T01:14:14;16.40;;;8.23;;
18883;SDS011;9574;47.282;9.640;2023-02-15T01:16:42;33.93;;;7.07;;
18883;SDS011;9574;47.282;9.640;2023-02-15T01:19:09;26.43;;;8.47;;
18883;SDS011;9574;47.282;9.640;2023-02-15T01:21:36;22.53;;;7.37;;
18883;SDS011;9574;47.282;9.640;2023-02-15T01:24:10;25.00;;;8.30;;
18883;SDS011;9574;47.282;9.640;2023-02-15T01:26:38;35.43;;;8.17;;
18883;SDS011;9574;47.282;9.640;2023-02-15T01:29:05;29.37;;;9.57;;
18883;SDS011;9574;47.282;9.640;2023-02-15T01:31:32;31.40;;;9.90;;
18883;SDS011;9574;47.282;9.640;2023-02-15T01:34:00;45.03;;;8.83;;
18883;SDS011;9574;47.282;9.640;2023-02-15T01:36:28;21.33;;;8.40;;
18883;SDS011;9574;47.282;9.640;2023-02-15T01:38:55;37.33;;;8.37;;
18883;SDS011;9574;47.282;9.640;2023-02-15T01:41:22;27.67;;;8.47;;
18883;SDS011;9574;47.282;9.640;2023-02-15T01:43:50;30.83;;;9.13;;
18883;SDS011;9574;47.282;9.640;2023-02-15T01:46:19;53.17;;;9.17;;
18883;SDS011;9574;47.282;9.640;2023-02-15T01:48:52;43.20;;;7.87;;
18883;SDS011;9574;47.282;9.640;2023-02-15T01:51:24;40.97;;;9.20;;
18883;SDS011;9574;47.282;9.640;2023-02-15T01:53:56;22.60;;;8.53;;
18883;SDS011;9574;47.282;9.640;2023-02-15T01:56:27;23.03;;;8.60;;
18883;SDS011;9574;47.282;9.640;2023-02-15T01:58:57;22.17;;;8.67;;
18883;SDS011;9574;47.282;9.640;2023-02-15T02:01:29;35.30;;;7.60;;
18883;SDS011;9574;47.282;9.640;2023-02-15T02:03:56;28.07;;;9.17;;
18883;SDS011;9574;47.282;9.640;2023-02-15T02:06:29;29.27;;;9.33;;
18883;SDS011;9574;47.282;9.640;2023-02-15T02:08:58;22.10;;;8.90;;
18883;SDS011;9574;47.282;9.640;2023-02-15T02:11:26;25.70;;;7.83;;
18883;SDS011;9574;47.282;9.640;2023-02-15T02:13:53;24.70;;;8.13;;
18883;SDS011;9574;47.282;9.640;2023-02-15T02:16:22;30.73;;;8.33;;
18883;SDS011;9574;47.282;9.640;2023-02-15T02:18:56;58.83;;;9.37;;
18883;SDS011;9574;47.282;9.640;2023-02-15T02:24:43;39.60;;;8.07;;
18883;SDS011;9574;47.282;9.640;2023-02-15T02:27:33;35.83;;;8.90;;
18883;SDS011;9574;47.282;9.640;2023-02-15T02:30:13;21.47;;;7.93;;
18883;SDS011;9574;47.282;9.640;2023-02-15T02:33:14;57.10;;;8.87;;
18883;SDS011;9574;47.282;9.640;2023-02-15T02:36:08;30.70;;;7.97;;
18883;SDS011;9574;47.282;9.640;2023-02-15T02:38:44;41.03;;;8.63;;
18883;SDS011;9574;47.282;9.640;2023-02-15T02:41:24;21.43;;;8.47;;
18883;SDS011;9574;47.282;9.640;2023-02-15T02:43:59;43.13;;;8.37;;
18883;SDS011;9574;47.282;9.640;2023-02-15T02:46:35;40.87;;;8.80;;
18883;SDS011;9574;47.282;9.640;2023-02-15T02:49:07;31.03;;;8.10;;
18883;SDS011;9574;47.282;9.640;2023-02-15T02:51:34;26.73;;;6.97;;
18883;SDS011;9574;47.282;9.640;2023-02-15T02:54:01;43.37;;;7.53;;
18883;SDS011;9574;47.282;9.640;2023-02-15T02:56:33;43.67;;;7.70;;
18883;SDS011;9574;47.282;9.640;2023-02-15T02:59:04;49.43;;;8.07;;
18883;SDS011;9574;47.282;9.640;2023-02-15T03:01:37;28.50;;;7.67;;
18883;SDS011;9574;47.282;9.640;2023-02-15T03:04:09;49.77;;;8.40;;
18883;SDS011;9574;47.282;9.640;2023-02-15T03:06:39;40.50;;;8.33;;
18883;SDS011;9574;47.282;9.640;2023-02-15T03:09:12;44.47;;;7.87;;
18883;SDS011;9574;47.282;9.640;2023-02-15T03:11:45;61.70;;;8.60;;
18883;SDS011;9574;47.282;9.640;2023-02-15T03:14:13;46.80;;;7.87;;
18883;SDS011;9574;47.282;9.640;2023-02-15T03:16:41;35.33;;;8.20;;
18883;SDS011;9574;47.282;9.640;2023-02-15T03:19:13;29.93;;;7.90;;
18883;SDS011;9574;47.282;9.640;2023-02-15T03:21:44;24.67;;;7.93;;
18883;SDS011;9574;47.282;9.640;2023-02-15T03:24:23;25.87;;;7.60;;
18883;SDS011;9574;47.282;9.640;2023-02-15T03:26:52;31.77;;;7.80;;
18883;SDS011;9574;47.282;9.640;2023-02-15T03:29:22;60.70;;;7.77;;
18883;SDS011;9574;47.282;9.640;2023-02-15T03:31:53;48.93;;;7.60;;
18883;SDS011;9574;47.282;9.640;2023-02-15T03:34:25;28.20;;;8.03;;
18883;SDS011;9574;47.282;9.640;2023-02-15T03:36:55;25.27;;;8.20;;
18883;SDS011;9574;47.282;9.640;2023-02-15T03:39:28;29.43;;;7.57;;
18883;SDS011;9574;47.282;9.640;2023-02-15T03:42:01;16.83;;;7.40;;
18883;SDS011;9574;47.282;9.640;2023-02-15T03:44:37;35.13;;;7.40;;
18883;SDS011;9574;47.282;9.640;2023-02-15T03:47:13;35.87;;;8.33;;
18883;SDS011;9574;47.282;9.640;2023-02-15T03:49:45;30.03;;;7.87;;
18883;SDS011;9574;47.282;9.640;2023-02-15T03:52:16;22.10;;;8.80;;
18883;SDS011;9574;47.282;9.640;2023-02-15T03:54:46;22.67;;;7.23;;
18883;SDS011;9574;47.282;9.640;2023-02-15T03:57:17;14.53;;;7.53;;
18883;SDS011;9574;47.282;9.640;2023-02-15T04:00:04;35.33;;;7.47;;
18883;SDS011;9574;47.282;9.640;2023-02-15T04:03:04;19.77;;;6.83;;
18883;SDS011;9574;47.282;9.640;2023-02-15T04:05:43;29.90;;;7.03;;
18883;SDS011;9574;47.282;9.640;2023-02-15T04:08:11;22.60;;;8.07;;
18883;SDS011;9574;47.282;9.640;2023-02-15T04:10:38;37.93;;;6.90;;
18883;SDS011;9574;47.282;9.640;2023-02-15T04:13:21;18.97;;;6.97;;
18883;SDS011;9574;47.282;9.640;2023-02-15T04:15:49;16.97;;;7.27;;
18883;SDS011;9574;47.282;9.640;2023-02-15T04:18:31;21.03;;;7.20;;
18883;SDS011;9574;47.282;9.640;2023-02-15T04:21:19;34.10;;;7.20;;
18883;SDS011;9574;47.282;9.640;2023-02-15T04:24:05;46.10;;;6.30;;
18883;SDS011;9574;47.282;9.640;2023-02-15T04:26:50;26.03;;;6.63;;
18883;SDS011;9574;47.282;9.640;2023-02-15T04:29:18;20.73;;;6.50;;
18883;SDS011;9574;47.282;9.640;2023-02-15T04:31:45;19.57;;;7.10;;
18883;SDS011;9574;47.282;9.640;2023-02-15T04:34:12;13.90;;;6.03;;
18883;SDS011;9574;47.282;9.640;2023-02-15T04:36:41;31.77;;;5.83;;
18883;SDS011;9574;47.282;9.640;2023-02-15T04:39:08;57.23;;;6.50;;
18883;SDS011;9574;47.282;9.640;2023-02-15T04:41:38;15.70;;;6.13;;
18883;SDS011;9574;47.282;9.640;2023-02-15T04:44:05;33.23;;;5.90;;
18883;SDS011;9574;47.282;9.640;2023-02-15T04:46:32;25.03;;;7.17;;
18883;SDS011;9574;47.282;9.640;2023-02-15T04:48:59;21.97;;;6.60;;
18883;SDS011;9574;47.282;9.640;2023-02-15T04:51:26;17.13;;;6.57;;
18883;SDS011;9574;47.282;9.640;2023-02-15T04:53:54;18.00;;;6.40;;
18883;SDS011;9574;47.282;9.640;2023-02-15T04:56:21;25.40;;;6.83;;
18883;SDS011;9574;47.282;9.640;2023-02-15T04:58:49;19.40;;;6.17;;
18883;SDS011;9574;47.282;9.640;2023-02-15T05:01:16;24.57;;;6.17;;
18883;SDS011;9574;47.282;9.640;2023-02-15T05:03:43;25.73;;;6.20;;
18883;SDS011;9574;47.282;9.640;2023-02-15T05:06:10;14.87;;;6.00;;
18883;SDS011;9574;47.282;9.640;2023-02-15T05:08:37;12.10;;;5.73;;
18883;SDS011;9574;47.282;9.640;2023-02-15T05:11:06;10.63;;;5.47;;
18883;SDS011;9574;47.282;9.640;2023-02-15T05:13:33;40.07;;;5.23;;
18883;SDS011;9574;47.282;9.640;2023-02-15T05:16:00;18.73;;;6.17;;
18883;SDS011;9574;47.282;9.640;2023-02-15T05:18:27;33.17;;;5.53;;
18883;SDS011;9574;47.282;9.640;2023-02-15T05:20:54;15.03;;;5.03;;
18883;SDS011;9574;47.282;9.640;2023-02-15T05:23:21;17.53;;;5.20;;
18883;SDS011;9574;47.282;9.640;2023-02-15T05:25:48;26.57;;;5.37;;
18883;SDS011;9574;47.282;9.640;2023-02-15T05:28:34;20.60;;;5.97;;
18883;SDS011;9574;47.282;9.640;2023-02-15T05:31:03;20.57;;;6.13;;
18883;SDS011;9574;47.282;9.640;2023-02-15T05:33:32;37.80;;;5.77;;
18883;SDS011;9574;47.282;9.640;2023-02-15T05:36:00;41.23;;;6.60;;
18883;SDS011;9574;47.282;9.640;2023-02-15T05:38:27;27.30;;;5.80;;
18883;SDS011;9574;47.282;9.640;2023-02-15T05:40:54;10.20;;;5.50;;
18883;SDS011;9574;47.282;9.640;2023-02-15T05:43:22;14.83;;;4.97;;
18883;SDS011;9574;47.282;9.640;2023-02-15T05:45:51;16.50;;;5.60;;
18883;SDS011;9574;47.282;9.640;2023-02-15T05:48:20;12.70;;;6.00;;
18883;SDS011;9574;47.282;9.640;2023-02-15T05:50:56;24.43;;;6.13;;
18883;SDS011;9574;47.282;9.640;2023-02-15T05:53:24;21.83;;;5.93;;
18883;SDS011;9574;47.282;9.640;2023-02-15T05:55:51;21.97;;;6.33;;
18883;SDS011;9574;47.282;9.640;2023-02-15T05:58:23;22.93;;;5.83;;
18883;SDS011;9574;47.282;9.640;2023-02-15T06:00:52;17.97;;;5.27;;
18883;SDS011;9574;47.282;9.640;2023-02-15T06:03:20;28.90;;;6.57;;
18883;SDS011;9574;47.282;9.640;2023-02-15T06:05:47;11.10;;;5.80;;
18883;SDS011;9574;47.282;9.640;2023-02-15T06:08:14;19.60;;;6.07;;
18883;SDS011;9574;47.282;9.640;2023-02-15T06:10:41;12.00;;;5.77;;
18883;SDS011;9574;47.282;9.640;2023-02-15T06:13:08;12.33;;;6.17;;
18883;SDS011;9574;47.282;9.640;2023-02-15T06:15:35;26.87;;;5.57;;
18883;SDS011;9574;47.282;9.640;2023-02-15T06:18:04;10.10;;;5.30;;
18883;SDS011;9574;47.282;9.640;2023-02-15T06:20:31;11.13;;;6.37;;
18883;SDS011;9574;47.282;9.640;2023-02-15T06:22:58;12.33;;;5.20;;
18883;SDS011;9574;47.282;9.640;2023-02-15T06:25:25;19.03;;;6.30;;
18883;SDS011;9574;47.282;9.640;2023-02-15T06:27:52;27.00;;;6.53;;
18883;SDS011;9574;47.282;9.640;2023-02-15T06:30:19;23.87;;;6.20;;
18883;SDS011;9574;47.282;9.640;2023-02-15T06:32:46;28.37;;;7.13;;
18883;SDS011;9574;47.282;9.640;2023-02-15T06:35:15;14.63;;;5.97;;
18883;SDS011;9574;47.282;9.640;2023-02-15T06:37:42;15.93;;;7.23;;
18883;SDS011;9574;47.282;9.640;2023-02-15T06:40:11;28.10;;;8.27;;
18883;SDS011;9574;47.282;9.640;2023-02-15T06:42:39;26.70;;;8.37;;
18883;SDS011;9574;47.282;9.640;2023-02-15T06:45:07;30.80;;;8.17;;
18883;SDS011;9574;47.282;9.640;2023-02-15T06:47:34;16.37;;;6.97;;
18883;SDS011;9574;47.282;9.640;2023-02-15T06:50:01;26.17;;;8.20;;
18883;SDS011;9574;47.282;9.640;2023-02-15T06:52:30;15.43;;;6.67;;
18883;SDS011;9574;47.282;9.640;2023-02-15T06:54:57;17.60;;;7.27;;
18883;SDS011;9574;47.282;9.640;2023-02-15T06:57:24;17.03;;;8.10;;
18883;SDS011;9574;47.282;9.640;2023-02-15T06:59:51;15.67;;;7.30;;
18883;SDS011;9574;47.282;9.640;2023-02-15T07:02:18;23.17;;;8.67;;
18883;SDS011;9574;47.282;9.640;2023-02-15T07:04:45;17.17;;;8.03;;
18883;SDS011;9574;47.282;9.640;2023-02-15T07:07:12;19.70;;;8.13;;
18883;SDS011;9574;47.282;9.640;2023-02-15T07:09:41;20.87;;;8.00;;
18883;SDS011;9574;47.282;9.640;2023-02-15T07:12:09;17.10;;;8.07;;
18883;SDS011;9574;47.282;9.640;2023-02-15T07:14:53;15.90;;;7.13;;
18883;SDS011;9574;47.282;9.640;2023-02-15T07:17:20;21.20;;;9.20;;
18883;SDS011;9574;47.282;9.640;2023-02-15T07:19:47;23.57;;;8.70;;
18883;SDS011;9574;47.282;9.640;2023-02-15T07:22:14;16.63;;;8.20;;
18883;SDS011;9574;47.282;9.640;2023-02-15T07:24:42;19.10;;;7.87;;
18883;SDS011;9574;47.282;9.640;2023-02-15T07:27:09;22.60;;;9.00;;
18883;SDS011;9574;47.282;9.640;2023-02-15T07:29:36;30.07;;;9.37;;
18883;SDS011;9574;47.282;9.640;2023-02-15T07:32:03;23.07;;;8.30;;
18883;SDS011;9574;47.282;9.640;2023-02-15T07:34:30;22.40;;;8.57;;
18883;SDS011;9574;47.282;9.640;2023-02-15T07:36:57;14.00;;;7.63;;
18883;SDS011;9574;47.282;9.640;2023-02-15T07:39:24;16.67;;;7.60;;
18883;SDS011;9574;47.282;9.640;2023-02-15T07:41:52;27.40;;;9.07;;
18883;SDS011;9574;47.282;9.640;2023-02-15T07:44:19;26.53;;;9.23;;
18883;SDS011;9574;47.282;9.640;2023-02-15T07:46:46;22.90;;;8.33;;
18883;SDS011;9574;47.282;9.640;2023-02-15T07:49:13;16.27;;;8.17;;
18883;SDS011;9574;47.282;9.640;2023-02-15T07:51:40;20.20;;;7.70;;
18883;SDS011;9574;47.282;9.640;2023-02-15T07:54:07;13.90;;;7.10;;
18883;SDS011;9574;47.282;9.640;2023-02-15T07:56:34;16.97;;;7.47;;
18883;SDS011;9574;47.282;9.640;2023-02-15T07:59:03;16.23;;;7.50;;
18883;SDS011;9574;47.282;9.640;2023-02-15T08:01:30;22.97;;;7.47;;
18883;SDS011;9574;47.282;9.640;2023-02-15T08:04:00;15.03;;;7.63;;
18883;SDS011;9574;47.282;9.640;2023-02-15T08:06:27;15.93;;;7.53;;
18883;SDS011;9574;47.282;9.640;2023-02-15T08:08:56;19.50;;;9.10;;
18883;SDS011;9574;47.282;9.640;2023-02-15T08:11:23;17.67;;;8.07;;
18883;SDS011;9574;47.282;9.640;2023-02-15T08:13:54;18.13;;;8.23;;
18883;SDS011;9574;47.282;9.640;2023-02-15T08:16:26;29.47;;;9.53;;
18883;SDS011;9574;47.282;9.640;2023-02-15T08:18:55;17.63;;;7.73;;
18883;SDS011;9574;47.282;9.640;2023-02-15T08:21:22;17.13;;;8.23;;
18883;SDS011;9574;47.282;9.640;2023-02-15T08:23:52;15.27;;;7.63;;
18883;SDS011;9574;47.282;9.640;2023-02-15T08:26:19;11.73;;;6.87;;
18883;SDS011;9574;47.282;9.640;2023-02-15T08:28:47;13.37;;;7.97;;
18883;SDS011;9574;47.282;9.640;2023-02-15T08:31:14;14.43;;;8.33;;
18883;SDS011;9574;47.282;9.640;2023-02-15T08:33:43;18.70;;;9.80;;
18883;SDS011;9574;47.282;9.640;2023-02-15T08:36:12;22.37;;;8.53;;
18883;SDS011;9574;47.282;9.640;2023-02-15T08:38:40;16.37;;;8.20;;
18883;SDS011;9574;47.282;9.640;2023-02-15T08:41:09;14.40;;;7.17;;
18883;SDS011;9574;47.282;9.640;2023-02-15T08:43:40;14.83;;;6.97;;
18883;SDS011;9574;47.282;9.640;2023-02-15T08:46:07;17.30;;;8.10;;
18883;SDS011;9574;47.282;9.640;2023-02-15T08:48:36;13.97;;;7.17;;
18883;SDS011;9574;47.282;9.640;2023-02-15T08:51:08;16.33;;;7.10;;
18883;SDS011;9574;47.282;9.640;2023-02-15T08:53:37;13.83;;;7.73;;
18883;SDS011;9574;47.282;9.640;2023-02-15T08:56:04;13.63;;;7.10;;
18883;SDS011;9574;47.282;9.640;2023-02-15T08:58:32;14.17;;;7.33;;
18883;SDS011;9574;47.282;9.640;2023-02-15T09:00:59;13.43;;;6.60;;
18883;SDS011;9574;47.282;9.640;2023-02-15T09:03:28;16.33;;;7.60;;
18883;SDS011;9574;47.282;9.640;2023-02-15T09:05:58;20.60;;;8.40;;
18883;SDS011;9574;47.282;9.640;2023-02-15T09:08:27;16.03;;;7.73;;
18883;SDS011;9574;47.282;9.640;2023-02-15T09:11:04;14.83;;;6.17;;
18883;SDS011;9574;47.282;9.640;2023-02-15T09:13:32;14.07;;;7.07;;
18883;SDS011;9574;47.282;9.640;2023-02-15T09:16:00;12.07;;;6.30;;
18883;SDS011;9574;47.282;9.640;2023-02-15T09:18:29;15.23;;;6.87;;
18883;SDS011;9574;47.282;9.640;2023-02-15T09:20:57;19.63;;;7.80;;
18883;SDS011;9574;47.282;9.640;2023-02-15T09:23:31;14.90;;;7.60;;
18883;SDS011;9574;47.282;9.640;2023-02-15T09:26:01;15.20;;;7.63;;
18883;SDS011;9574;47.282;9.640;2023-02-15T09:28:29;17.43;;;8.23;;
18883;SDS011;9574;47.282;9.640;2023-02-15T09:31:03;19.27;;;7.83;;
18883;SDS011;9574;47.282;9.640;2023-02-15T09:33:32;15.27;;;7.47;;
18883;SDS011;9574;47.282;9.640;2023-02-15T09:36:01;10.83;;;7.17;;
18883;SDS011;9574;47.282;9.640;2023-02-15T09:38:28;16.03;;;8.23;;
18883;SDS011;9574;47.282;9.640;2023-02-15T09:41:00;14.73;;;7.57;;
18883;SDS011;9574;47.282;9.640;2023-02-15T09:43:38;18.07;;;7.47;;
18883;SDS011;9574;47.282;9.640;2023-02-15T09:46:27;17.63;;;8.47;;
18883;SDS011;9574;47.282;9.640;2023-02-15T09:49:08;16.73;;;7.93;;
18883;SDS011;9574;47.282;9.640;2023-02-15T09:54:44;14.43;;;7.53;;
18883;SDS011;9574;47.282;9.640;2023-02-15T09:57:22;15.97;;;8.60;;
18883;SDS011;9574;47.282;9.640;2023-02-15T10:00:00;15.47;;;8.67;;
18883;SDS011;9574;47.282;9.640;2023-02-15T10:02:38;20.43;;;9.60;;
18883;SDS011;9574;47.282;9.640;2023-02-15T10:05:21;19.23;;;7.67;;
18883;SDS011;9574;47.282;9.640;2023-02-15T10:11:10;17.27;;;8.77;;
18883;SDS011;9574;47.282;9.640;2023-02-15T10:14:05;16.67;;;8.07;;
18883;SDS011;9574;47.282;9.640;2023-02-15T10:16:48;24.83;;;9.37;;
18883;SDS011;9574;47.282;9.640;2023-02-15T10:19:23;23.23;;;9.53;;
18883;SDS011;9574;47.282;9.640;2023-02-15T10:22:00;18.47;;;8.90;;
18883;SDS011;9574;47.282;9.640;2023-02-15T10:24:43;22.67;;;8.93;;
18883;SDS011;9574;47.282;9.640;2023-02-15T10:27:21;16.10;;;8.80;;
18883;SDS011;9574;47.282;9.640;2023-02-15T10:29:52;19.00;;;9.53;;
18883;SDS011;9574;47.282;9.640;2023-02-15T10:32:32;18.50;;;8.30;;
18883;SDS011;9574;47.282;9.640;2023-02-15T10:35:10;18.43;;;9.17;;
18883;SDS011;9574;47.282;9.640;2023-02-15T10:37:49;16.10;;;7.70;;
18883;SDS011;9574;47.282;9.640;2023-02-15T10:40:28;14.17;;;8.23;;
18883;SDS011;9574;47.282;9.640;2023-02-15T10:43:06;18.73;;;9.17;;
18883;SDS011;9574;47.282;9.640;2023-02-15T10:45:49;20.43;;;9.97;;
18883;SDS011;9574;47.282;9.640;2023-02-15T10:48:34;18.70;;;9.07;;
18883;SDS011;9574;47.282;9.640;2023-02-15T10:51:14;21.67;;;9.80;;
18883;SDS011;9574;47.282;9.640;2023-02-15T10:53:51;20.40;;;8.83;;
18883;SDS011;9574;47.282;9.640;2023-02-15T10:56:34;20.83;;;9.43;;
18883;SDS011;9574;47.282;9.640;2023-02-15T10:59:12;17.57;;;8.67;;
18883;SDS011;9574;47.282;9.640;2023-02-15T11:01:53;19.23;;;9.57;;
18883;SDS011;9574;47.282;9.640;2023-02-15T11:07:20;19.90;;;9.47;;
18883;SDS011;9574;47.282;9.640;2023-02-15T11:09:51;22.77;;;9.97;;
18883;SDS011;9574;47.282;9.640;2023-02-15T11:12:24;22.53;;;9.27;;
18883;SDS011;9574;47.282;9.640;2023-02-15T11:14:55;26.73;;;10.30;;
18883;SDS011;9574;47.282;9.640;2023-02-15T11:17:28;20.03;;;9.97;;
18883;SDS011;9574;47.282;9.640;2023-02-15T11:20:04;28.40;;;10.83;;
18883;SDS011;9574;47.282;9.640;2023-02-15T11:22:43;19.73;;;10.40;;
18883;SDS011;9574;47.282;9.640;2023-02-15T11:25:16;28.47;;;11.00;;
18883;SDS011;9574;47.282;9.640;2023-02-15T11:27:45;27.80;;;11.07;;
18883;SDS011;9574;47.282;9.640;2023-02-15T11:30:17;22.77;;;9.90;;
18883;SDS011;9574;47.282;9.640;2023-02-15T11:32:48;24.40;;;10.53;;
18883;SDS011;9574;47.282;9.640;2023-02-15T11:35:20;21.37;;;9.70;;
18883;SDS011;9574;47.282;9.640;2023-02-15T11:37:51;21.53;;;9.70;;
18883;SDS011;9574;47.282;9.640;2023-02-15T11:40:24;22.00;;;10.23;;
18883;SDS011;9574;47.282;9.640;2023-02-15T11:42:55;19.60;;;9.57;;
18883;SDS011;9574;47.282;9.640;2023-02-15T11:45:26;24.80;;;10.60;;
18883;SDS011;9574;47.282;9.640;2023-02-15T11:47:56;25.97;;;10.57;;
18883;SDS011;9574;47.282;9.640;2023-02-15T11:50:25;23.63;;;10.60;;
18883;SDS011;9574;47.282;9.640;2023-02-15T11:52:56;18.50;;;9.73;;
18883;SDS011;9574;47.282;9.640;2023-02-15T11:55:25;17.63;;;9.07;;
18883;SDS011;9574;47.282;9.640;2023-02-15T11:57:54;18.07;;;9.17;;
18883;SDS011;9574;47.282;9.640;2023-02-15T12:00:31;25.07;;;8.83;;
18883;SDS011;9574;47.282;9.640;2023-02-15T12:03:03;17.40;;;8.17;;
18883;SDS011;9574;47.282;9.640;2023-02-15T12:05:39;20.30;;;9.00;;
18883;SDS011;9574;47.282;9.640;2023-02-15T12:08:18;19.87;;;9.20;;
18883;SDS011;9574;47.282;9.640;2023-02-15T12:10:52;15.97;;;8.30;;
18883;SDS011;9574;47.282;9.640;2023-02-15T12:13:24;19.87;;;9.93;;
18883;SDS011;9574;47.282;9.640;2023-02-15T12:15:52;19.23;;;9.37;;
18883;SDS011;9574;47.282;9.640;2023-02-15T12:18:31;25.20;;;10.80;;
18883;SDS011;9574;47.282;9.640;2023-02-15T12:21:03;17.47;;;9.57;;
18883;SDS011;9574;47.282;9.640;2023-02-15T12:23:33;18.90;;;10.07;;
18883;SDS011;9574;47.282;9.640;2023-02-15T12:26:05;23.03;;;10.87;;
18883;SDS011;9574;47.282;9.640;2023-02-15T12:28:33;23.43;;;9.87;;
18883;SDS011;9574;47.282;9.640;2023-02-15T12:31:02;18.13;;;9.23;;
18883;SDS011;9574;47.282;9.640;2023-02-15T12:33:38;18.67;;;9.43;;
18883;SDS011;9574;47.282;9.640;2023-02-15T12:36:11;17.33;;;9.97;;
18883;SDS011;9574;47.282;9.640;2023-02-15T12:38:41;22.80;;;10.13;;
18883;SDS011;9574;47.282;9.640;2023-02-15T12:41:21;16.57;;;8.50;;
18883;SDS011;9574;47.282;9.640;2023-02-15T12:44:02;19.07;;;9.57;;
18883;SDS011;9574;47.282;9.640;2023-02-15T12:46:31;17.20;;;8.90;;
18883;SDS011;9574;47.282;9.640;2023-02-15T12:49:14;17.70;;;9.00;;
18883;SDS011;9574;47.282;9.640;2023-02-15T12:51:44;16.80;;;8.67;;
18883;SDS011;9574;47.282;9.640;2023-02-15T12:54:16;16.70;;;8.57;;
18883;SDS011;9574;47.282;9.640;2023-02-15T12:56:58;17.40;;;9.83;;
18883;SDS011;9574;47.282;9.640;2023-02-15T12:59:25;18.90;;;10.23;;
18883;SDS011;9574;47.282;9.640;2023-02-15T13:01:52;21.97;;;9.53;;
18883;SDS011;9574;47.282;9.640;2023-02-15T13:04:23;22.00;;;9.03;;
18883;SDS011;9574;47.282;9.640;2023-02-15T13:06:53;17.93;;;9.53;;
18883;SDS011;9574;47.282;9.640;2023-02-15T13:09:25;16.17;;;9.60;;
18883;SDS011;9574;47.282;9.640;2023-02-15T13:12:14;20.10;;;10.67;;
18883;SDS011;9574;47.282;9.640;2023-02-15T13:14:44;19.77;;;9.73;;
18883;SDS011;9574;47.282;9.640;2023-02-15T13:17:13;20.77;;;9.37;;
18883;SDS011;9574;47.282;9.640;2023-02-15T13:19:44;20.13;;;9.33;;
18883;SDS011;9574;47.282;9.640;2023-02-15T13:22:14;16.87;;;9.07;;
18883;SDS011;9574;47.282;9.640;2023-02-15T13:24:44;15.03;;;8.63;;
18883;SDS011;9574;47.282;9.640;2023-02-15T13:27:15;17.77;;;9.77;;
18883;SDS011;9574;47.282;9.640;2023-02-15T13:29:45;22.13;;;9.60;;
18883;SDS011;9574;47.282;9.640;2023-02-15T13:32:20;20.83;;;9.93;;
18883;SDS011;9574;47.282;9.640;2023-02-15T13:34:53;21.13;;;10.27;;
18883;SDS011;9574;47.282;9.640;2023-02-15T13:37:28;17.77;;;10.37;;
18883;SDS011;9574;47.282;9.640;2023-02-15T13:40:15;18.80;;;9.30;;
18883;SDS011;9574;47.282;9.640;2023-02-15T13:42:49;19.80;;;9.60;;
18883;SDS011;9574;47.282;9.640;2023-02-15T13:45:30;17.80;;;9.47;;
18883;SDS011;9574;47.282;9.640;2023-02-15T13:48:08;24.07;;;10.23;;
18883;SDS011;9574;47.282;9.640;2023-02-15T13:50:52;18.63;;;10.53;;
18883;SDS011;9574;47.282;9.640;2023-02-15T13:53:34;27.67;;;11.57;;
18883;SDS011;9574;47.282;9.640;2023-02-15T13:56:22;24.67;;;10.97;;
18883;SDS011;9574;47.282;9.640;2023-02-15T13:59:16;16.03;;;9.83;;
18883;SDS011;9574;47.282;9.640;2023-02-15T14:01:56;19.43;;;9.40;;
18883;SDS011;9574;47.282;9.640;2023-02-15T14:04:40;19.73;;;10.07;;
18883;SDS011;9574;47.282;9.640;2023-02-15T14:10:25;17.93;;;9.87;;
18883;SDS011;9574;47.282;9.640;2023-02-15T14:16:17;19.83;;;9.93;;
18883;SDS011;9574;47.282;9.640;2023-02-15T14:18:59;21.33;;;10.10;;
18883;SDS011;9574;47.282;9.640;2023-02-15T14:21:36;18.83;;;9.93;;
18883;SDS011;9574;47.282;9.640;2023-02-15T14:24:14;16.70;;;9.90;;
18883;SDS011;9574;47.282;9.640;2023-02-15T14:26:49;20.03;;;10.10;;
18883;SDS011;9574;47.282;9.640;2023-02-15T14:29:25;18.73;;;9.40;;
18883;SDS011;9574;47.282;9.640;2023-02-15T14:32:07;20.10;;;10.67;;
18883;SDS011;9574;47.282;9.640;2023-02-15T14:34:41;23.30;;;10.27;;
18883;SDS011;9574;47.282;9.640;2023-02-15T14:37:12;21.80;;;9.90;;
18883;SDS011;9574;47.282;9.640;2023-02-15T14:39:47;19.27;;;9.73;;
18883;SDS011;9574;47.282;9.640;2023-02-15T14:42:47;18.93;;;10.13;;
18883;SDS011;9574;47.282;9.640;2023-02-15T14:45:21;19.10;;;9.53;;
18883;SDS011;9574;47.282;9.640;2023-02-15T14:47:55;16.17;;;9.13;;
18883;SDS011;9574;47.282;9.640;2023-02-15T14:50:40;18.93;;;10.03;;
18883;SDS011;9574;47.282;9.640;2023-02-15T14:53:33;19.70;;;9.87;;
18883;SDS011;9574;47.282;9.640;2023-02-15T14:56:19;24.17;;;10.87;;
18883;SDS011;9574;47.282;9.640;2023-02-15T15:01:54;19.47;;;9.57;;
18883;SDS011;9574;47.282;9.640;2023-02-15T15:04:25;21.23;;;9.73;;
18883;SDS011;9574;47.282;9.640;2023-02-15T15:07:03;17.57;;;9.23;;
18883;SDS011;9574;47.282;9.640;2023-02-15T15:09:36;19.97;;;10.00;;
18883;SDS011;9574;47.282;9.640;2023-02-15T15:12:35;18.50;;;9.57;;
18883;SDS011;9574;47.282;9.640;2023-02-15T15:15:05;20.17;;;9.30;;
18883;SDS011;9574;47.282;9.640;2023-02-15T15:17:53;20.77;;;10.00;;
18883;SDS011;9574;47.282;9.640;2023-02-15T15:20:42;18.57;;;9.80;;
18883;SDS011;9574;47.282;9.640;2023-02-15T15:26:23;18.40;;;8.87;;
18883;SDS011;9574;47.282;9.640;2023-02-15T15:28:58;18.87;;;8.53;;
18883;SDS011;9574;47.282;9.640;2023-02-15T15:31:28;17.40;;;8.97;;
18883;SDS011;9574;47.282;9.640;2023-02-15T15:34:17;17.77;;;8.80;;
18883;SDS011;9574;47.282;9.640;2023-02-15T15:46:36;22.23;;;10.30;;
18883;SDS011;9574;47.282;9.640;2023-02-15T15:49:12;17.63;;;9.20;;